createdAt,value
2017-10-16T00:01:36.084Z,99.90
2017-10-16T00:06:23.385Z,99.90
2017-10-16T00:11:10.126Z,99.90
2017-10-16T00:15:57.082Z,99.90
2017-10-16T00:20:44.412Z,99.90
2017-10-16T00:25:31.737Z,99.90
2017-10-16T00:30:18.349Z,99.90
2017-10-16T00:35:04.907Z,99.90
2017-10-16T00:39:51.488Z,99.90
2017-10-16T00:44:38.075Z,99.90
2017-10-16T00:49:24.656Z,99.90
2017-10-16T00:54:11.978Z,99.90
2017-10-16T00:58:58.528Z,99.90
2017-10-16T01:03:45.088Z,99.90
2017-10-16T01:08:31.733Z,99.90
2017-10-16T01:13:18.296Z,99.90
2017-10-16T01:18:05.106Z,99.90
2017-10-16T01:22:51.684Z,99.90
2017-10-16T01:27:38.324Z,99.90
2017-10-16T01:32:25.646Z,99.90
2017-10-16T01:37:12.221Z,99.90
2017-10-16T01:41:59.124Z,99.90
2017-10-16T01:46:46.096Z,99.90
2017-10-16T01:51:32.740Z,99.90
2017-10-16T01:56:19.305Z,99.90
2017-10-16T02:01:05.955Z,99.90
2017-10-16T02:05:52.985Z,99.90
2017-10-16T02:10:39.576Z,99.90
2017-10-16T02:15:26.117Z,99.90
2017-10-16T02:20:12.665Z,99.90
2017-10-16T02:24:59.241Z,99.90
2017-10-16T02:29:45.852Z,99.90
2017-10-16T02:34:32.477Z,99.90
2017-10-16T02:39:19.228Z,99.90
2017-10-16T02:44:05.801Z,99.90
2017-10-16T02:48:52.373Z,99.90
2017-10-16T02:53:38.944Z,99.90
2017-10-16T02:58:25.500Z,99.90
2017-10-16T03:03:12.107Z,99.90
2017-10-16T03:07:58.680Z,99.90
2017-10-16T03:12:45.982Z,99.90
2017-10-16T03:17:33.053Z,99.90
2017-10-16T03:22:20.430Z,99.90
2017-10-16T03:27:07.009Z,99.90
2017-10-16T03:31:54.377Z,99.90
2017-10-16T03:36:41.372Z,99.90
2017-10-16T03:41:28.756Z,99.90
2017-10-16T03:46:15.517Z,99.90
2017-10-16T03:51:02.120Z,99.90
2017-10-16T03:55:48.692Z,99.90
2017-10-16T04:00:35.496Z,99.90
2017-10-16T04:05:22.812Z,99.90
2017-10-16T04:10:09.409Z,99.90
2017-10-16T04:14:55.982Z,99.90
2017-10-16T04:19:49.581Z,99.90
2017-10-16T04:24:36.609Z,99.90
2017-10-16T04:29:23.177Z,99.90
2017-10-16T04:34:09.904Z,99.90
2017-10-16T04:38:56.670Z,99.90
2017-10-16T04:43:43.402Z,99.90
2017-10-16T04:48:30.660Z,99.90
2017-10-16T04:53:17.268Z,99.90
2017-10-16T04:58:03.844Z,99.90
2017-10-16T05:02:51.165Z,99.90
2017-10-16T05:07:37.877Z,99.90
2017-10-16T05:12:24.496Z,99.90
2017-10-16T05:17:11.093Z,99.90
2017-10-16T05:21:57.949Z,99.90
2017-10-16T05:26:44.544Z,99.90
2017-10-16T05:31:31.232Z,99.90
2017-10-16T05:36:17.880Z,99.90
2017-10-16T05:41:04.453Z,99.90
2017-10-16T05:45:51.772Z,99.90
2017-10-16T05:50:39.090Z,99.90
2017-10-16T05:55:25.676Z,99.90
2017-10-16T06:00:12.248Z,99.90
2017-10-16T06:04:58.804Z,99.90
2017-10-16T06:09:45.382Z,99.90
2017-10-16T06:14:31.966Z,99.90
2017-10-16T06:19:18.744Z,99.90
2017-10-16T06:24:05.333Z,99.90
2017-10-16T06:28:52.057Z,99.90
2017-10-16T06:33:38.744Z,99.90
2017-10-16T06:38:32.348Z,99.90
2017-10-16T06:43:18.961Z,99.90
2017-10-16T06:48:05.545Z,99.90
2017-10-16T06:52:52.177Z,99.90
2017-10-16T06:57:38.744Z,99.90
2017-10-16T07:02:25.330Z,99.90
2017-10-16T07:07:11.908Z,99.90
2017-10-16T07:11:59.970Z,99.90
2017-10-16T07:16:46.576Z,99.90
2017-10-16T07:21:33.897Z,99.90
2017-10-16T07:26:20.469Z,99.90
2017-10-16T07:31:07.044Z,99.90
2017-10-16T07:35:54.340Z,99.90
2017-10-16T07:40:40.897Z,99.90
2017-10-16T07:45:28.209Z,99.90
2017-10-16T07:50:14.941Z,99.90
2017-10-16T07:55:01.674Z,99.90
2017-10-16T07:59:48.301Z,99.90
2017-10-16T08:04:35.624Z,99.90
2017-10-16T08:09:22.171Z,99.90
2017-10-16T08:14:08.783Z,99.90
2017-10-16T08:18:56.104Z,99.90
2017-10-16T08:23:43.497Z,99.90
2017-10-16T08:28:30.048Z,99.90
2017-10-16T08:33:16.620Z,99.90
2017-10-16T08:38:03.238Z,99.90
2017-10-16T08:42:49.809Z,99.90
2017-10-16T08:47:36.531Z,99.90
2017-10-16T08:52:23.126Z,99.90
2017-10-16T08:57:09.713Z,99.90
2017-10-16T09:01:56.285Z,99.90
2017-10-16T09:06:43.029Z,99.90
2017-10-16T09:11:30.348Z,99.90
2017-10-16T09:16:16.935Z,99.90
2017-10-16T09:21:03.529Z,99.90
2017-10-16T09:25:50.109Z,99.90
2017-10-16T09:30:36.969Z,99.90
2017-10-16T09:35:23.534Z,99.90
2017-10-16T09:40:10.127Z,99.90
2017-10-16T09:44:56.740Z,99.90
2017-10-16T09:49:44.149Z,99.90
2017-10-16T09:54:31.709Z,99.90
2017-10-16T09:59:18.333Z,99.90
2017-10-16T10:04:05.227Z,98.00
2017-10-16T10:08:52.718Z,92.40
2017-10-16T10:13:39.319Z,92.30
2017-10-16T10:18:25.908Z,90.40
2017-10-16T10:23:13.344Z,79.60
2017-10-16T10:27:59.927Z,79.40
2017-10-16T10:32:46.593Z,72.60
2017-10-16T10:37:33.901Z,69.40
2017-10-16T10:42:20.491Z,69.40
2017-10-16T10:47:07.119Z,75.50
2017-10-16T10:51:53.728Z,72.50
2017-10-16T10:56:40.368Z,67.50
2017-10-16T11:01:27.253Z,68.40
2017-10-16T11:06:13.787Z,69.60
2017-10-16T11:11:00.374Z,60.30
2017-10-16T11:15:47.928Z,55.50
2017-10-16T11:20:34.488Z,55.40
2017-10-16T11:25:21.069Z,54.70
2017-10-16T11:30:07.645Z,58.30
2017-10-16T11:34:54.219Z,53.90
2017-10-16T11:39:40.816Z,54.00
2017-10-16T11:44:28.140Z,51.30
2017-10-16T11:49:15.477Z,54.00
2017-10-16T11:54:02.884Z,51.00
2017-10-16T11:58:49.486Z,51.00
2017-10-16T12:03:36.079Z,53.40
2017-10-16T12:08:22.685Z,51.40
2017-10-16T12:13:10.024Z,55.90
2017-10-16T12:17:57.339Z,56.80
2017-10-16T12:22:44.109Z,56.70
2017-10-16T12:27:30.748Z,57.60
2017-10-16T12:32:17.585Z,57.80
2017-10-16T12:37:04.150Z,58.00
2017-10-16T12:41:50.716Z,57.20
2017-10-16T12:46:37.313Z,56.10
2017-10-16T12:51:23.875Z,56.10
2017-10-16T12:56:11.272Z,54.90
2017-10-16T13:00:57.954Z,54.80
2017-10-16T13:05:45.261Z,59.10
2017-10-16T13:10:32.037Z,59.10
2017-10-16T13:15:18.612Z,60.60
2017-10-16T13:20:05.176Z,60.10
2017-10-16T13:24:51.720Z,59.80
2017-10-16T13:29:38.288Z,63.10
2017-10-16T13:34:25.612Z,80.50
2017-10-16T13:39:12.210Z,80.30
2017-10-16T13:43:59.388Z,81.20
2017-10-16T13:48:46.668Z,90.30
2017-10-16T13:53:33.221Z,90.20
2017-10-16T13:58:20.221Z,89.60
2017-10-16T14:03:06.805Z,91.40
2017-10-16T14:07:53.373Z,92.30
2017-10-16T14:12:39.936Z,91.60
2017-10-16T14:17:26.574Z,91.50
2017-10-16T14:22:13.140Z,90.40
2017-10-16T14:26:59.801Z,92.90
2017-10-16T14:31:46.406Z,94.40
2017-10-16T14:36:33.726Z,95.30
2017-10-16T14:41:21.045Z,97.10
2017-10-16T14:46:08.012Z,96.80
2017-10-16T14:50:54.774Z,96.80
2017-10-16T14:55:41.393Z,97.10
2017-10-16T15:00:27.993Z,97.60
2017-10-16T15:05:14.586Z,98.20
2017-10-16T15:10:02.003Z,97.60
2017-10-16T15:14:48.556Z,97.60
2017-10-16T15:19:35.108Z,97.70
2017-10-16T15:24:21.680Z,99.00
2017-10-16T15:29:09.020Z,99.40
2017-10-16T15:33:56.340Z,99.60
2017-10-16T15:38:43.644Z,99.10
2017-10-16T15:43:30.233Z,98.90
2017-10-16T15:48:16.828Z,99.60
2017-10-16T15:53:04.172Z,99.90
2017-10-16T15:57:50.879Z,99.90
2017-10-16T16:02:38.278Z,99.90
2017-10-16T16:07:24.860Z,99.90
2017-10-16T16:12:11.453Z,99.90
2017-10-16T16:16:58.012Z,99.90
2017-10-16T16:21:44.625Z,99.90
2017-10-16T16:26:31.166Z,99.90
2017-10-16T16:31:17.786Z,99.90
2017-10-16T16:36:04.384Z,99.90
2017-10-16T16:40:51.043Z,99.90
2017-10-16T16:45:37.792Z,99.90
2017-10-16T16:50:25.137Z,99.90
2017-10-16T16:55:12.826Z,99.90
2017-10-16T16:59:59.561Z,99.90
2017-10-16T17:04:46.217Z,99.90
2017-10-16T17:09:32.812Z,99.90
2017-10-16T17:14:19.403Z,99.90
2017-10-16T17:19:06.036Z,99.90
2017-10-16T17:23:52.605Z,99.90
2017-10-16T17:28:40.032Z,99.90
2017-10-16T17:33:27.465Z,99.90
2017-10-16T17:38:14.113Z,99.90
2017-10-16T17:43:01.689Z,99.90
2017-10-16T17:47:48.333Z,99.90
2017-10-16T17:52:35.002Z,99.90
2017-10-16T17:57:21.697Z,99.90
2017-10-16T18:02:09.144Z,99.90
2017-10-16T18:06:56.623Z,99.90
2017-10-16T18:11:43.409Z,99.90
2017-10-16T18:16:30.812Z,99.90
2017-10-16T18:21:17.511Z,99.90
2017-10-16T18:26:04.148Z,99.90
2017-10-16T18:30:50.937Z,99.90
2017-10-16T18:35:37.716Z,99.90
2017-10-16T18:40:24.438Z,99.90
2017-10-16T18:45:11.892Z,99.90
2017-10-16T18:49:59.320Z,99.90
2017-10-16T18:54:46.048Z,99.90
2017-10-16T18:59:33.575Z,99.90
2017-10-16T19:04:20.422Z,99.90
2017-10-16T19:09:07.841Z,99.90
2017-10-16T19:13:54.545Z,99.90
2017-10-16T19:18:41.321Z,99.90
2017-10-16T19:23:28.064Z,99.90
2017-10-16T19:28:14.738Z,99.90
2017-10-16T19:33:01.465Z,99.90
2017-10-16T19:37:49.672Z,99.90
2017-10-16T19:42:36.343Z,99.90
2017-10-16T19:47:23.053Z,99.90
2017-10-16T19:52:09.764Z,99.90
2017-10-16T19:56:56.388Z,99.90
2017-10-16T20:01:43.020Z,99.90
2017-10-16T20:06:30.124Z,99.90
2017-10-16T20:11:16.820Z,99.90
2017-10-16T20:16:03.479Z,99.90
2017-10-16T20:20:50.134Z,99.90
2017-10-16T20:25:37.489Z,99.90
2017-10-16T20:30:24.028Z,99.90
2017-10-16T20:35:10.650Z,99.90
2017-10-16T20:39:57.260Z,99.90
2017-10-16T20:44:43.927Z,99.90
2017-10-16T20:49:30.540Z,99.90
2017-10-16T20:54:17.109Z,99.90
2017-10-16T20:59:03.745Z,99.90
2017-10-16T21:03:50.316Z,99.90
2017-10-16T21:08:36.896Z,99.90
2017-10-16T21:13:23.489Z,99.90
2017-10-16T21:18:10.189Z,99.90
2017-10-16T21:22:56.797Z,99.90
2017-10-16T21:27:43.680Z,99.90
2017-10-16T21:32:30.274Z,99.90
2017-10-16T21:37:16.841Z,99.90
2017-10-16T21:42:04.224Z,99.90
2017-10-16T21:46:51.584Z,99.90
2017-10-16T21:51:38.190Z,99.90
2017-10-16T21:56:24.881Z,99.90
2017-10-16T22:01:12.203Z,99.90
2017-10-16T22:05:58.825Z,99.90
2017-10-16T22:10:45.693Z,99.90
2017-10-16T22:15:32.591Z,99.90
2017-10-16T22:20:19.328Z,99.90
2017-10-16T22:25:06.675Z,99.90
2017-10-16T22:29:53.252Z,99.90
2017-10-16T22:34:39.928Z,99.90
2017-10-16T22:39:26.717Z,99.90
2017-10-16T22:44:13.408Z,99.90
2017-10-16T22:49:00.302Z,99.90
2017-10-16T22:54:03.028Z,99.90
2017-10-16T22:58:50.364Z,99.90
2017-10-16T23:03:36.949Z,99.90
2017-10-16T23:08:23.526Z,99.90
2017-10-16T23:13:10.049Z,99.90
2017-10-16T23:17:56.635Z,99.90
2017-10-16T23:22:43.466Z,99.90
2017-10-16T23:27:30.057Z,99.90
2017-10-16T23:32:16.720Z,99.90
2017-10-16T23:37:03.637Z,99.90
2017-10-16T23:41:50.201Z,99.90
2017-10-16T23:46:37.541Z,99.90
2017-10-16T23:51:24.845Z,99.90
2017-10-16T23:56:11.423Z,99.90
